San Antonio International Airport San Antonio US
ICAO: KSAT
IATA: SAT
Category: Large
Scheduled Services: Yes

Elevation: 809 ft
TransAlt. 18000 ft.

Airport Communications:
APP/DEP:118.05
ATIS:118.9
CLNC DEL:126.7
GND:121.9
SAN ANGELO RDO:122.2
TWR:119.8
UNICOM:122.95

KSAT Zoom In..

Runways:

(A) RW 04 length 8505 ft width 150 ft
ILS 109.70 / hdg 33

(B) RW 12L length 5519 ft width 100 ft
---- / hdg 124

(C) RW 12R length 8502 ft width 150 ft
ILS 110.90 / hdg 124

(D) RW 22 length 8505 ft width 150 ft
---- / hdg 213

(E) RW 30L length 8502 ft width 150 ft
ILS 110.90 / hdg 304

(F) RW 30R length 5519 ft width 100 ft
---- / hdg 304

Location; KSAT
Day. 09 / Time. 00.51 Zulu
* Altimeter: 30.03
* Temperature: 33° c. 91.4°f.
* Wind from: 150° Speed 11 kn.
Dewpoint: 20° c.
Visibility: 10 Statute Miles.
Clouds: Few 8000 ft.
Clouds: Few 25000 ft.
Conditions: Towering CB.Conditions: Rain Showers.

KSAT 090051Z 15011KT 10SM FEW080 FEW250 33/20 A3003 RMK AO2 PK WND 15030/0022 SLP151 TCU SHRA DSNT NE E AND S T03280200

Going to: --> -->


Wind From 150°
Speed 11 kn.

 
 
jpsmedia worldairports.se 2020   terms of use